sensor_id;sensor_type;location;lat;lon;timestamp;pressure;altitude;pressure_sealevel;temperature;humidity
53758;BME280;39674;59.860;30.672;2022-10-16T00:51:57;101356.91;;;7.87;100.00
53758;BME280;39674;59.860;30.672;2022-10-16T01:04:33;101347.28;;;7.86;100.00
53758;BME280;39674;59.860;30.672;2022-10-16T01:31:45;101332.38;;;7.57;100.00
53758;BME280;39674;59.860;30.672;2022-10-16T01:47:54;101348.31;;;7.51;100.00
53758;BME280;39674;59.860;30.672;2022-10-16T01:59:07;101473.28;;;8.26;100.00
53758;BME280;39674;59.860;30.672;2022-10-16T02:02:08;101354.53;;;7.48;100.00
53758;BME280;39674;59.860;30.672;2022-10-16T02:05:40;101397.63;;;7.74;100.00
53758;BME280;39674;59.860;30.672;2022-10-16T02:09:24;101405.56;;;7.71;100.00
53758;BME280;39674;59.860;30.672;2022-10-16T02:21:43;101394.25;;;7.69;100.00
53758;BME280;39674;59.860;30.672;2022-10-16T02:29:47;101332.28;;;7.29;100.00
53758;BME280;39674;59.860;30.672;2022-10-16T02:54:35;101359.44;;;7.61;100.00
53758;BME280;39674;59.860;30.672;2022-10-16T03:06:22;101367.09;;;7.68;100.00
53758;BME280;39674;59.860;30.672;2022-10-16T03:59:28;101332.72;;;7.13;100.00
53758;BME280;39674;59.860;30.672;2022-10-16T04:50:08;101395.97;;;7.38;100.00
53758;BME280;39674;59.860;30.672;2022-10-16T05:45:25;101260.41;;;6.67;100.00
53758;BME280;39674;59.860;30.672;2022-10-16T07:14:38;101209.50;;;7.91;100.00
53758;BME280;39674;59.860;30.672;2022-10-16T07:18:09;101221.47;;;8.01;100.00
53758;BME280;39674;59.860;30.672;2022-10-16T07:25:02;101223.00;;;8.08;100.00
53758;BME280;39674;59.860;30.672;2022-10-16T07:42:39;101213.38;;;8.07;100.00
53758;BME280;39674;59.860;30.672;2022-10-16T07:49:33;101330.66;;;8.95;100.00
53758;BME280;39674;59.860;30.672;2022-10-16T07:53:38;101247.47;;;8.37;100.00
53758;BME280;39674;59.860;30.672;2022-10-16T08:04:36;101189.88;;;8.28;100.00
53758;BME280;39674;59.860;30.672;2022-10-16T08:08:39;101331.75;;;9.14;100.00
53758;BME280;39674;59.860;30.672;2022-10-16T08:11:57;101194.94;;;8.34;99.40
53758;BME280;39674;59.860;30.672;2022-10-16T08:16:16;101270.28;;;8.89;100.00
53758;BME280;39674;59.860;30.672;2022-10-16T08:19:58;101328.63;;;9.28;99.29
53758;BME280;39674;59.860;30.672;2022-10-16T08:23:30;101179.72;;;8.42;99.81
53758;BME280;39674;59.860;30.672;2022-10-16T08:26:52;101260.44;;;8.94;99.40
53758;BME280;39674;59.860;30.672;2022-10-16T08:31:34;101253.34;;;8.96;99.13
53758;BME280;39674;59.860;30.672;2022-10-16T09:34:00;101163.88;;;9.17;95.48
53758;BME280;39674;59.860;30.672;2022-10-16T10:13:31;101179.56;;;9.43;95.95
53758;BME280;39674;59.860;30.672;2022-10-16T10:42:40;101162.97;;;9.18;96.94
53758;BME280;39674;59.860;30.672;2022-10-16T10:46:54;101278.72;;;9.93;97.10
53758;BME280;39674;59.860;30.672;2022-10-16T11:00:33;101170.09;;;8.92;97.35
53758;BME280;39674;59.860;30.672;2022-10-16T11:08:26;101177.53;;;8.80;97.62
53758;BME280;39674;59.860;30.672;2022-10-16T11:12:21;101217.97;;;9.03;97.61
53758;BME280;39674;59.860;30.672;2022-10-16T11:21:13;101235.50;;;9.04;98.83
53758;BME280;39674;59.860;30.672;2022-10-16T11:24:16;101156.84;;;8.44;98.87
53758;BME280;39674;59.860;30.672;2022-10-16T11:28:29;101242.81;;;8.96;99.71
53758;BME280;39674;59.860;30.672;2022-10-16T11:31:11;101167.09;;;8.54;100.00
53758;BME280;39674;59.860;30.672;2022-10-16T11:37:47;101143.28;;;8.30;100.00
53758;BME280;39674;59.860;30.672;2022-10-16T11:41:00;101201.19;;;8.57;100.00
53758;BME280;39674;59.860;30.672;2022-10-16T11:44:18;101217.38;;;8.71;100.00
53758;BME280;39674;59.860;30.672;2022-10-16T11:51:22;101118.81;;;8.02;100.00
53758;BME280;39674;59.860;30.672;2022-10-16T11:54:41;101147.25;;;8.16;100.00
53758;BME280;39674;59.860;30.672;2022-10-16T11:57:58;101230.16;;;8.57;100.00
53758;BME280;39674;59.860;30.672;2022-10-16T12:01:12;101224.81;;;8.58;100.00
53758;BME280;39674;59.860;30.672;2022-10-16T12:04:25;101230.22;;;8.55;100.00
53758;BME280;39674;59.860;30.672;2022-10-16T12:07:35;101125.53;;;7.84;100.00
53758;BME280;39674;59.860;30.672;2022-10-16T12:10:44;101201.09;;;8.33;100.00
53758;BME280;39674;59.860;30.672;2022-10-16T12:13:49;101263.03;;;8.70;100.00
53758;BME280;39674;59.860;30.672;2022-10-16T12:20:29;101128.88;;;7.90;100.00
53758;BME280;39674;59.860;30.672;2022-10-16T12:31:20;101256.31;;;8.61;100.00
53758;BME280;39674;59.860;30.672;2022-10-16T12:35:06;101132.53;;;7.85;100.00
53758;BME280;39674;59.860;30.672;2022-10-16T12:39:16;101217.50;;;8.41;100.00
53758;BME280;39674;59.860;30.672;2022-10-16T12:55:14;101162.97;;;8.19;100.00
53758;BME280;39674;59.860;30.672;2022-10-16T13:06:53;101078.22;;;7.84;100.00
53758;BME280;39674;59.860;30.672;2022-10-16T13:11:11;101079.88;;;7.87;100.00
53758;BME280;39674;59.860;30.672;2022-10-16T13:21:38;101223.69;;;8.65;100.00
53758;BME280;39674;59.860;30.672;2022-10-16T13:30:31;101084.50;;;7.80;100.00
53758;BME280;39674;59.860;30.672;2022-10-16T13:33:42;101088.53;;;7.91;100.00
53758;BME280;39674;59.860;30.672;2022-10-16T13:36:57;101085.88;;;7.91;100.00
53758;BME280;39674;59.860;30.672;2022-10-16T13:39:38;101166.75;;;8.38;100.00
53758;BME280;39674;59.860;30.672;2022-10-16T13:43:46;101088.44;;;7.94;100.00
53758;BME280;39674;59.860;30.672;2022-10-16T13:47:20;101221.03;;;8.67;100.00
53758;BME280;39674;59.860;30.672;2022-10-16T13:51:23;101088.53;;;7.91;100.00
53758;BME280;39674;59.860;30.672;2022-10-16T13:58:13;101062.75;;;7.75;100.00
53758;BME280;39674;59.860;30.672;2022-10-16T14:01:03;101073.00;;;7.83;100.00
53758;BME280;39674;59.860;30.672;2022-10-16T14:04:30;101114.00;;;8.15;100.00
53758;BME280;39674;59.860;30.672;2022-10-16T14:07:57;101162.31;;;8.38;100.00
53758;BME280;39674;59.860;30.672;2022-10-16T14:11:03;101147.66;;;8.31;100.00
53758;BME280;39674;59.860;30.672;2022-10-16T14:14:49;101091.00;;;7.95;100.00
53758;BME280;39674;59.860;30.672;2022-10-16T14:20:52;101159.81;;;8.35;100.00
53758;BME280;39674;59.860;30.672;2022-10-16T14:23:43;101145.94;;;8.30;100.00
53758;BME280;39674;59.860;30.672;2022-10-16T14:30:53;101205.22;;;8.67;100.00
53758;BME280;39674;59.860;30.672;2022-10-16T14:37:00;101151.78;;;8.38;100.00
53758;BME280;39674;59.860;30.672;2022-10-16T14:40:02;101157.06;;;8.38;100.00
53758;BME280;39674;59.860;30.672;2022-10-16T14:43:22;101077.03;;;7.93;100.00
53758;BME280;39674;59.860;30.672;2022-10-16T14:50:30;101066.69;;;7.89;100.00
53758;BME280;39674;59.860;30.672;2022-10-16T14:53:39;101213.69;;;8.75;100.00
53758;BME280;39674;59.860;30.672;2022-10-16T14:56:56;101163.53;;;8.55;100.00
53758;BME280;39674;59.860;30.672;2022-10-16T14:59:37;101053.34;;;7.95;100.00
53758;BME280;39674;59.860;30.672;2022-10-16T15:02:43;101059.28;;;8.00;100.00
53758;BME280;39674;59.860;30.672;2022-10-16T15:05:20;101140.97;;;8.47;100.00
53758;BME280;39674;59.860;30.672;2022-10-16T15:07:53;101187.72;;;8.66;100.00
53758;BME280;39674;59.860;30.672;2022-10-16T15:10:43;101177.19;;;8.66;100.00
53758;BME280;39674;59.860;30.672;2022-10-16T15:13:14;101083.81;;;8.00;100.00
53758;BME280;39674;59.860;30.672;2022-10-16T15:15:57;101158.38;;;8.51;100.00
53758;BME280;39674;59.860;30.672;2022-10-16T15:18:36;101126.75;;;8.26;100.00
53758;BME280;39674;59.860;30.672;2022-10-16T15:21:20;101195.22;;;8.77;100.00
53758;BME280;39674;59.860;30.672;2022-10-16T15:23:52;101196.00;;;8.79;100.00
53758;BME280;39674;59.860;30.672;2022-10-16T15:26:40;101186.34;;;8.79;100.00
53758;BME280;39674;59.860;30.672;2022-10-16T15:29:25;101109.69;;;8.38;100.00
53758;BME280;39674;59.860;30.672;2022-10-16T15:31:54;101168.25;;;8.70;100.00
53758;BME280;39674;59.860;30.672;2022-10-16T15:34:23;101135.50;;;8.54;100.00
53758;BME280;39674;59.860;30.672;2022-10-16T15:37:04;101082.31;;;8.18;100.00
53758;BME280;39674;59.860;30.672;2022-10-16T15:39:39;101186.91;;;8.88;100.00
53758;BME280;39674;59.860;30.672;2022-10-16T15:42:33;101132.84;;;8.54;100.00
53758;BME280;39674;59.860;30.672;2022-10-16T15:45:06;101142.25;;;8.61;100.00
53758;BME280;39674;59.860;30.672;2022-10-16T15:48:11;101063.41;;;8.07;100.00
53758;BME280;39674;59.860;30.672;2022-10-16T15:53:03;101062.84;;;8.23;100.00
53758;BME280;39674;59.860;30.672;2022-10-16T15:56:06;101055.16;;;8.18;100.00
53758;BME280;39674;59.860;30.672;2022-10-16T15:59:52;101134.81;;;8.72;100.00
53758;BME280;39674;59.860;30.672;2022-10-16T16:03:28;101067.09;;;8.27;100.00
53758;BME280;39674;59.860;30.672;2022-10-16T16:06:36;101051.41;;;8.24;100.00
53758;BME280;39674;59.860;30.672;2022-10-16T16:09:45;101063.28;;;8.35;100.00
53758;BME280;39674;59.860;30.672;2022-10-16T16:17:40;101151.19;;;9.04;100.00
53758;BME280;39674;59.860;30.672;2022-10-16T16:20:37;101128.53;;;9.00;100.00
53758;BME280;39674;59.860;30.672;2022-10-16T16:29:08;101131.94;;;9.02;100.00
53758;BME280;39674;59.860;30.672;2022-10-16T16:30:33;101103.34;;;8.91;100.00
53758;BME280;39674;59.860;30.672;2022-10-16T16:43:36;101060.38;;;8.91;100.00
53758;BME280;39674;59.860;30.672;2022-10-16T16:46:21;101066.19;;;8.99;100.00
53758;BME280;39674;59.860;30.672;2022-10-16T16:53:17;101001.47;;;8.46;100.00
53758;BME280;39674;59.860;30.672;2022-10-16T16:56:35;101125.47;;;9.33;100.00
53758;BME280;39674;59.860;30.672;2022-10-16T16:59:28;101084.16;;;9.11;100.00
53758;BME280;39674;59.860;30.672;2022-10-16T17:03:57;101135.66;;;9.42;100.00
53758;BME280;39674;59.860;30.672;2022-10-16T17:18:09;100963.22;;;8.61;100.00
53758;BME280;39674;59.860;30.672;2022-10-16T17:21:31;100976.81;;;8.72;100.00
53758;BME280;39674;59.860;30.672;2022-10-16T17:24:35;101088.69;;;9.52;100.00
53758;BME280;39674;59.860;30.672;2022-10-16T17:28:26;101041.09;;;9.33;100.00
53758;BME280;39674;59.860;30.672;2022-10-16T17:46:19;101019.06;;;9.36;100.00
53758;BME280;39674;59.860;30.672;2022-10-16T17:57:02;101005.56;;;9.43;100.00
53758;BME280;39674;59.860;30.672;2022-10-16T18:10:09;100940.44;;;9.25;100.00
53758;BME280;39674;59.860;30.672;2022-10-16T18:14:00;101022.22;;;9.85;100.00
53758;BME280;39674;59.860;30.672;2022-10-16T18:25:23;100893.19;;;9.20;100.00
53758;BME280;39674;59.860;30.672;2022-10-16T18:36:42;100871.28;;;9.18;100.00
53758;BME280;39674;59.860;30.672;2022-10-16T18:44:27;100848.56;;;9.15;100.00
53758;BME280;39674;59.860;30.672;2022-10-16T18:47:52;100846.47;;;9.24;100.00
53758;BME280;39674;59.860;30.672;2022-10-16T18:57:46;100847.03;;;9.30;100.00
53758;BME280;39674;59.860;30.672;2022-10-16T18:59:14;100905.47;;;9.61;100.00
53758;BME280;39674;59.860;30.672;2022-10-16T19:06:17;100868.72;;;9.37;100.00
53758;BME280;39674;59.860;30.672;2022-10-16T19:39:22;100906.38;;;10.00;100.00
53758;BME280;39674;59.860;30.672;2022-10-16T20:01:36;100922.09;;;10.41;100.00
53758;BME280;39674;59.860;30.672;2022-10-16T20:05:37;100804.06;;;9.68;100.00
53758;BME280;39674;59.860;30.672;2022-10-16T20:15:39;100907.75;;;10.47;100.00
53758;BME280;39674;59.860;30.672;2022-10-16T20:56:28;100759.13;;;9.89;100.00
53758;BME280;39674;59.860;30.672;2022-10-16T20:59:45;100700.66;;;9.42;100.00
53758;BME280;39674;59.860;30.672;2022-10-16T21:03:21;100686.47;;;9.45;100.00
53758;BME280;39674;59.860;30.672;2022-10-16T21:06:28;100699.03;;;9.40;100.00
53758;BME280;39674;59.860;30.672;2022-10-16T21:09:09;100763.28;;;9.75;100.00
53758;BME280;39674;59.860;30.672;2022-10-16T21:12:32;100702.50;;;9.40;100.00
53758;BME280;39674;59.860;30.672;2022-10-16T21:15:24;100810.09;;;10.08;100.00
53758;BME280;39674;59.860;30.672;2022-10-16T21:17:57;100691.81;;;9.43;100.00
53758;BME280;39674;59.860;30.672;2022-10-16T21:21:02;100697.59;;;9.52;100.00
53758;BME280;39674;59.860;30.672;2022-10-16T21:24:01;100737.44;;;9.82;100.00
53758;BME280;39674;59.860;30.672;2022-10-16T21:27:10;100719.81;;;9.65;100.00
53758;BME280;39674;59.860;30.672;2022-10-16T21:29:42;100805.31;;;10.17;100.00
53758;BME280;39674;59.860;30.672;2022-10-16T21:32:11;100761.59;;;9.92;100.00
53758;BME280;39674;59.860;30.672;2022-10-16T21:34:53;100769.25;;;9.98;100.00
53758;BME280;39674;59.860;30.672;2022-10-16T21:37:25;100699.22;;;9.54;100.00
53758;BME280;39674;59.860;30.672;2022-10-16T21:39:59;100757.34;;;9.89;100.00
53758;BME280;39674;59.860;30.672;2022-10-16T21:42:39;100724.34;;;9.80;100.00
53758;BME280;39674;59.860;30.672;2022-10-16T21:45:18;100781.59;;;10.15;100.00
53758;BME280;39674;59.860;30.672;2022-10-16T21:47:57;100710.81;;;9.69;100.00
53758;BME280;39674;59.860;30.672;2022-10-16T21:50:31;100744.84;;;9.93;100.00
53758;BME280;39674;59.860;30.672;2022-10-16T21:53:09;100731.53;;;9.96;100.00
53758;BME280;39674;59.860;30.672;2022-10-16T21:55:51;100680.41;;;9.62;100.00
53758;BME280;39674;59.860;30.672;2022-10-16T21:58:32;100776.19;;;10.18;100.00
53758;BME280;39674;59.860;30.672;2022-10-16T22:01:14;100734.16;;;9.96;100.00
53758;BME280;39674;59.860;30.672;2022-10-16T22:04:00;100701.53;;;9.79;100.00
53758;BME280;39674;59.860;30.672;2022-10-16T22:06:30;100706.50;;;9.86;100.00
53758;BME280;39674;59.860;30.672;2022-10-16T22:09:15;100718.97;;;10.01;100.00
53758;BME280;39674;59.860;30.672;2022-10-16T22:11:56;100769.31;;;10.33;100.00
53758;BME280;39674;59.860;30.672;2022-10-16T22:14:51;100695.91;;;10.05;100.00
53758;BME280;39674;59.860;30.672;2022-10-16T22:17:32;100658.31;;;9.82;100.00
53758;BME280;39674;59.860;30.672;2022-10-16T22:20:15;100600.03;;;9.52;100.00
53758;BME280;39674;59.860;30.672;2022-10-16T22:22:58;100628.59;;;9.61;100.00
53758;BME280;39674;59.860;30.672;2022-10-16T22:25:27;100729.22;;;10.25;100.00
53758;BME280;39674;59.860;30.672;2022-10-16T22:28:05;100655.94;;;9.77;100.00
53758;BME280;39674;59.860;30.672;2022-10-16T22:30:45;100614.63;;;9.59;100.00
53758;BME280;39674;59.860;30.672;2022-10-16T22:33:17;100692.50;;;10.03;100.00
53758;BME280;39674;59.860;30.672;2022-10-16T22:35:46;100684.66;;;10.01;100.00
53758;BME280;39674;59.860;30.672;2022-10-16T22:38:27;100684.81;;;9.98;100.00
53758;BME280;39674;59.860;30.672;2022-10-16T22:41:03;100689.78;;;10.04;100.00
53758;BME280;39674;59.860;30.672;2022-10-16T22:43:34;100686.06;;;10.08;100.00
53758;BME280;39674;59.860;30.672;2022-10-16T22:46:12;100696.44;;;10.11;100.00
53758;BME280;39674;59.860;30.672;2022-10-16T22:48:45;100638.38;;;9.76;100.00
53758;BME280;39674;59.860;30.672;2022-10-16T22:51:19;100681.72;;;10.07;100.00
53758;BME280;39674;59.860;30.672;2022-10-16T22:53:49;100721.78;;;10.33;100.00
53758;BME280;39674;59.860;30.672;2022-10-16T22:56:23;100668.13;;;9.98;100.00
53758;BME280;39674;59.860;30.672;2022-10-16T22:58:56;100675.34;;;10.11;100.00
53758;BME280;39674;59.860;30.672;2022-10-16T23:01:31;100662.31;;;10.08;100.00
53758;BME280;39674;59.860;30.672;2022-10-16T23:04:10;100662.22;;;10.10;100.00
53758;BME280;39674;59.860;30.672;2022-10-16T23:06:44;100640.13;;;9.95;100.00
53758;BME280;39674;59.860;30.672;2022-10-16T23:09:15;100684.03;;;10.14;100.00
53758;BME280;39674;59.860;30.672;2022-10-16T23:11:45;100718.63;;;10.44;100.00
53758;BME280;39674;59.860;30.672;2022-10-16T23:14:26;100618.22;;;9.93;100.00
53758;BME280;39674;59.860;30.672;2022-10-16T23:17:00;100683.53;;;10.42;100.00
53758;BME280;39674;59.860;30.672;2022-10-16T23:19:30;100563.66;;;9.76;100.00
53758;BME280;39674;59.860;30.672;2022-10-16T23:22:01;100626.53;;;10.20;100.00
53758;BME280;39674;59.860;30.672;2022-10-16T23:24:32;100652.06;;;10.20;100.00
53758;BME280;39674;59.860;30.672;2022-10-16T23:27:03;100641.81;;;10.14;100.00
53758;BME280;39674;59.860;30.672;2022-10-16T23:29:45;100693.06;;;10.44;100.00
53758;BME280;39674;59.860;30.672;2022-10-16T23:32:31;100643.31;;;10.19;100.00
53758;BME280;39674;59.860;30.672;2022-10-16T23:35:00;100603.19;;;9.95;100.00
53758;BME280;39674;59.860;30.672;2022-10-16T23:37:45;100680.66;;;10.47;100.00
53758;BME280;39674;59.860;30.672;2022-10-16T23:40:33;100585.81;;;9.91;100.00
53758;BME280;39674;59.860;30.672;2022-10-16T23:43:13;100648.88;;;10.31;100.00
53758;BME280;39674;59.860;30.672;2022-10-16T23:45:42;100620.09;;;10.08;100.00
53758;BME280;39674;59.860;30.672;2022-10-16T23:48:23;100574.91;;;9.79;100.00
53758;BME280;39674;59.860;30.672;2022-10-16T23:51:20;100581.13;;;9.96;100.00
53758;BME280;39674;59.860;30.672;2022-10-16T23:53:59;100629.69;;;10.27;100.00
53758;BME280;39674;59.860;30.672;2022-10-16T23:56:43;100615.72;;;10.25;100.00
53758;BME280;39674;59.860;30.672;2022-10-16T23:59:14;100659.81;;;10.58;100.00
